createdAt,value
2019-01-16T00:00:55.236Z,82.02
2019-01-16T00:03:52.115Z,81.81
2019-01-16T00:06:46.101Z,81.67
2019-01-16T00:09:37.115Z,81.70
2019-01-16T00:12:31.235Z,81.48
2019-01-16T00:15:22.227Z,81.54
2019-01-16T00:18:08.613Z,81.78
2019-01-16T00:20:56.528Z,81.95
2019-01-16T00:23:43.097Z,81.84
2019-01-16T00:26:35.638Z,81.17
2019-01-16T00:29:29.651Z,81.55
2019-01-16T00:32:10.788Z,81.69
2019-01-16T00:34:49.366Z,80.75
2019-01-16T00:37:36.160Z,81.05
2019-01-16T00:40:19.987Z,81.00
2019-01-16T00:43:26.091Z,80.87
2019-01-16T00:46:16.753Z,80.85
2019-01-16T00:49:13.884Z,80.92
2019-01-16T00:52:00.447Z,81.04
2019-01-16T00:54:55.251Z,80.51
2019-01-16T00:58:01.180Z,80.83
2019-01-16T01:00:39.067Z,80.74
2019-01-16T01:03:25.140Z,80.92
2019-01-16T01:06:01.494Z,80.73
2019-01-16T01:08:55.762Z,80.93
2019-01-16T01:11:53.638Z,80.49
2019-01-16T01:14:31.642Z,80.50
2019-01-16T01:17:22.417Z,80.27
2019-01-16T01:20:09.791Z,80.09
2019-01-16T01:22:45.528Z,80.21
2019-01-16T01:25:29.539Z,80.34
2019-01-16T01:28:16.183Z,80.08
2019-01-16T01:31:02.784Z,80.26
2019-01-16T01:34:01.528Z,80.53
2019-01-16T01:36:44.635Z,80.16
2019-01-16T01:39:35.579Z,80.08
2019-01-16T01:42:27.578Z,80.52
2019-01-16T01:45:15.833Z,80.17
2019-01-16T01:48:01.509Z,80.16
2019-01-16T01:50:58.288Z,80.25
2019-01-16T01:53:52.256Z,79.92
2019-01-16T01:56:38.829Z,79.67
2019-01-16T01:59:35.579Z,79.29
2019-01-16T02:02:11.220Z,79.29
2019-01-16T02:04:51.974Z,79.34
2019-01-16T02:07:39.923Z,79.55
2019-01-16T02:10:18.616Z,79.48
2019-01-16T02:13:09.458Z,79.73
2019-01-16T02:16:00.071Z,79.40
2019-01-16T02:18:50.790Z,79.15
2019-01-16T02:21:36.986Z,78.96
2019-01-16T02:24:29.063Z,79.08
2019-01-16T02:27:29.141Z,79.52
2019-01-16T02:30:09.674Z,79.31
2019-01-16T02:33:03.743Z,79.09
2019-01-16T02:35:49.743Z,79.06
2019-01-16T02:38:32.113Z,78.96
2019-01-16T02:41:19.277Z,79.18
2019-01-16T02:44:13.369Z,79.07
2019-01-16T02:46:56.380Z,79.33
2019-01-16T02:49:42.684Z,79.06
2019-01-16T02:52:23.659Z,78.56
2019-01-16T02:55:10.220Z,78.56
2019-01-16T02:58:02.118Z,78.63
2019-01-16T03:00:41.672Z,78.69
2019-01-16T03:03:28.302Z,78.85
2019-01-16T03:06:14.438Z,78.52
2019-01-16T03:08:52.558Z,78.48
2019-01-16T03:11:30.091Z,78.81
2019-01-16T03:14:30.122Z,78.71
2019-01-16T03:17:18.066Z,78.52
2019-01-16T03:20:20.966Z,79.07
2019-01-16T03:23:07.003Z,79.07
2019-01-16T03:25:44.278Z,79.23
2019-01-16T03:28:21.224Z,79.06
2019-01-16T03:31:09.204Z,79.12
2019-01-16T03:34:14.986Z,79.37
2019-01-16T03:37:04.778Z,79.23
2019-01-16T03:39:49.056Z,79.36
2019-01-16T03:42:36.986Z,79.10
2019-01-16T03:45:32.390Z,78.73
2019-01-16T03:48:14.102Z,78.42
2019-01-16T03:51:11.194Z,78.54
2019-01-16T03:53:50.008Z,78.29
2019-01-16T03:56:31.620Z,78.52
2019-01-16T03:59:28.336Z,78.01
2019-01-16T04:02:25.146Z,78.19
2019-01-16T04:05:11.795Z,77.98
2019-01-16T04:07:58.346Z,77.97
2019-01-16T04:10:46.239Z,77.88
2019-01-16T04:13:32.091Z,77.90
2019-01-16T04:16:20.003Z,77.80
2019-01-16T04:19:06.278Z,78.04
2019-01-16T04:22:06.207Z,78.02
2019-01-16T04:24:51.710Z,78.06
2019-01-16T04:27:38.338Z,77.89
2019-01-16T04:30:32.572Z,78.05
2019-01-16T04:33:23.528Z,78.13
2019-01-16T04:36:09.878Z,78.14
2019-01-16T04:39:03.603Z,78.34
2019-01-16T04:41:38.995Z,78.22
2019-01-16T04:44:25.304Z,78.67
2019-01-16T04:47:11.854Z,78.85
2019-01-16T04:49:58.627Z,79.23
2019-01-16T04:52:43.010Z,79.48
2019-01-16T04:55:29.623Z,79.89
2019-01-16T04:58:10.841Z,80.17
2019-01-16T05:01:01.528Z,80.11
2019-01-16T05:04:07.292Z,80.27
2019-01-16T05:06:56.778Z,80.25
2019-01-16T05:09:39.449Z,79.96
2019-01-16T05:12:34.924Z,80.31
2019-01-16T05:15:13.724Z,80.58
2019-01-16T05:18:07.033Z,80.42
2019-01-16T05:20:53.557Z,80.47
2019-01-16T05:23:37.300Z,80.35
2019-01-16T05:26:14.095Z,80.21
2019-01-16T05:29:11.499Z,80.02
2019-01-16T05:31:57.840Z,80.46
2019-01-16T05:34:52.682Z,80.40
2019-01-16T05:37:55.761Z,79.86
2019-01-16T05:40:48.791Z,80.07
2019-01-16T05:43:36.759Z,79.94
2019-01-16T05:46:36.626Z,79.83
2019-01-16T05:49:18.012Z,80.01
2019-01-16T05:52:08.809Z,79.67
2019-01-16T05:54:56.947Z,79.49
2019-01-16T05:57:44.860Z,79.51
2019-01-16T06:00:33.497Z,79.46
2019-01-16T06:03:33.406Z,79.59
2019-01-16T06:06:33.407Z,79.16
2019-01-16T06:09:20.007Z,79.22
2019-01-16T06:12:17.056Z,79.08
2019-01-16T06:15:03.896Z,79.01
2019-01-16T06:18:01.837Z,79.15
2019-01-16T06:21:07.705Z,79.25
2019-01-16T06:23:54.087Z,79.38
2019-01-16T06:26:40.630Z,78.98
2019-01-16T06:29:34.532Z,78.99
2019-01-16T06:32:22.588Z,78.87
2019-01-16T06:35:10.460Z,78.32
2019-01-16T06:38:08.012Z,78.26
2019-01-16T06:41:03.822Z,78.28
2019-01-16T06:43:49.566Z,78.41
2019-01-16T06:46:55.819Z,78.96
2019-01-16T06:49:30.503Z,78.39
2019-01-16T06:52:05.682Z,78.20
2019-01-16T06:54:49.474Z,78.17
2019-01-16T06:57:49.493Z,78.49
2019-01-16T07:00:36.120Z,78.50
2019-01-16T07:03:29.007Z,78.92
2019-01-16T07:06:22.705Z,78.98
2019-01-16T07:09:13.610Z,79.00
2019-01-16T07:12:04.551Z,78.99
2019-01-16T07:14:44.247Z,78.63
2019-01-16T07:17:24.661Z,79.09
2019-01-16T07:20:11.053Z,79.15
2019-01-16T07:23:05.027Z,79.15
2019-01-16T07:25:54.090Z,79.42
2019-01-16T07:28:42.060Z,79.42
2019-01-16T07:31:32.770Z,79.71
2019-01-16T07:34:09.745Z,79.75
2019-01-16T07:36:49.701Z,79.61
2019-01-16T07:39:35.794Z,79.57
2019-01-16T07:42:19.718Z,79.74
2019-01-16T07:45:10.449Z,79.47
2019-01-16T07:47:48.707Z,79.55
2019-01-16T07:50:39.431Z,78.72
2019-01-16T07:53:17.056Z,78.23
2019-01-16T07:55:57.117Z,78.26
2019-01-16T07:58:43.483Z,78.08
2019-01-16T08:01:29.819Z,78.55
2019-01-16T08:04:29.306Z,78.40
2019-01-16T08:07:17.262Z,78.06
2019-01-16T08:10:07.970Z,78.10
2019-01-16T08:12:56.343Z,77.71
2019-01-16T08:15:44.232Z,77.71
2019-01-16T08:18:28.186Z,77.60
2019-01-16T08:21:21.902Z,77.57
2019-01-16T08:23:58.532Z,77.29
2019-01-16T08:26:49.540Z,76.86
2019-01-16T08:29:35.892Z,77.00
2019-01-16T08:32:19.374Z,76.65
2019-01-16T08:35:10.342Z,76.66
2019-01-16T08:37:56.738Z,76.48
2019-01-16T08:40:50.783Z,76.38
2019-01-16T08:43:24.905Z,76.23
2019-01-16T08:46:11.236Z,75.92
2019-01-16T08:49:05.005Z,76.33
2019-01-16T08:51:51.528Z,76.07
2019-01-16T08:54:42.422Z,75.71
2019-01-16T08:57:36.159Z,75.25
2019-01-16T09:00:25.506Z,75.53
2019-01-16T09:03:03.997Z,75.27
2019-01-16T09:06:01.448Z,75.47
2019-01-16T09:08:49.445Z,75.18
2019-01-16T09:11:32.038Z,74.91
2019-01-16T09:14:24.707Z,74.91
2019-01-16T09:17:11.073Z,74.53
2019-01-16T09:20:05.853Z,74.71
2019-01-16T09:22:53.828Z,74.80
2019-01-16T09:25:40.496Z,74.78
2019-01-16T09:28:20.135Z,74.46
2019-01-16T09:31:02.653Z,74.21
2019-01-16T09:33:50.625Z,74.18
2019-01-16T09:36:37.487Z,74.10
2019-01-16T09:39:35.019Z,73.81
2019-01-16T09:42:21.940Z,73.58
2019-01-16T09:45:09.941Z,73.94
2019-01-16T09:47:57.366Z,73.52
2019-01-16T09:50:48.228Z,73.74
2019-01-16T09:53:34.623Z,73.21
2019-01-16T09:56:31.865Z,73.24
2019-01-16T09:59:59.944Z,73.69
2019-01-16T10:05:41.592Z,73.32
2019-01-16T10:09:01.961Z,73.11
2019-01-16T10:11:50.458Z,73.69
2019-01-16T10:14:32.958Z,73.40
2019-01-16T10:17:20.869Z,73.48
2019-01-16T10:20:07.579Z,73.14
2019-01-16T10:23:08.742Z,73.09
2019-01-16T10:25:51.878Z,72.90
2019-01-16T10:28:44.621Z,73.23
2019-01-16T10:31:36.324Z,73.38
2019-01-16T10:38:03.022Z,73.80
2019-01-16T10:40:53.899Z,73.94
2019-01-16T10:43:50.636Z,73.78
2019-01-16T10:46:35.193Z,74.22
2019-01-16T10:49:25.843Z,74.27
2019-01-16T10:52:04.693Z,74.83
2019-01-16T10:54:55.768Z,75.20
2019-01-16T10:57:52.514Z,75.45
2019-01-16T11:00:44.999Z,75.87
2019-01-16T11:03:34.055Z,76.53
2019-01-16T11:06:22.060Z,76.53
2019-01-16T11:08:59.380Z,76.84
2019-01-16T11:11:43.291Z,77.03
2019-01-16T11:14:40.362Z,76.96
2019-01-16T11:17:31.314Z,77.15
2019-01-16T11:20:37.187Z,77.67
2019-01-16T11:23:33.068Z,78.28
2019-01-16T11:26:12.318Z,78.95
2019-01-16T11:29:06.272Z,79.10
2019-01-16T11:31:52.551Z,79.40
2019-01-16T11:34:38.948Z,79.53
2019-01-16T11:37:20.849Z,79.69
2019-01-16T11:40:07.415Z,79.71
2019-01-16T11:42:48.195Z,80.05
2019-01-16T11:45:23.904Z,79.92
2019-01-16T11:48:21.588Z,79.91
2019-01-16T11:51:07.164Z,79.49
2019-01-16T11:53:53.848Z,79.19
2019-01-16T11:56:36.796Z,79.44
2019-01-16T11:59:17.975Z,79.49
2019-01-16T12:02:08.910Z,79.21
2019-01-16T12:04:59.560Z,79.35
2019-01-16T12:07:50.235Z,79.28
2019-01-16T12:10:32.413Z,78.93
2019-01-16T12:13:23.121Z,79.12
2019-01-16T12:16:22.979Z,78.85
2019-01-16T12:19:25.777Z,78.05
2019-01-16T12:22:25.604Z,78.21
2019-01-16T12:25:20.212Z,77.95
2019-01-16T12:28:26.022Z,78.23
2019-01-16T12:31:03.315Z,77.91
2019-01-16T12:33:49.683Z,77.41
2019-01-16T12:36:31.434Z,77.07
2019-01-16T12:39:19.510Z,77.44
2019-01-16T12:42:06.225Z,76.87
2019-01-16T12:48:15.685Z,76.95
2019-01-16T12:51:03.642Z,76.96
2019-01-16T12:53:55.760Z,77.06
2019-01-16T12:56:55.545Z,77.15
2019-01-16T12:59:38.587Z,77.39
2019-01-16T13:02:35.340Z,77.54
2019-01-16T13:05:26.331Z,77.44
2019-01-16T13:08:22.759Z,78.04
2019-01-16T13:11:13.251Z,77.99
2019-01-16T13:14:00.716Z,78.28
2019-01-16T13:16:55.215Z,78.40
2019-01-16T13:19:34.138Z,78.11
2019-01-16T13:22:38.709Z,77.88
2019-01-16T13:25:26.664Z,78.22
2019-01-16T13:28:12.982Z,78.18
2019-01-16T13:30:57.872Z,78.59
2019-01-16T13:33:47.221Z,78.49
2019-01-16T13:36:26.326Z,78.42
2019-01-16T13:39:17.284Z,78.10
2019-01-16T13:42:02.147Z,78.44
2019-01-16T13:44:55.973Z,78.10
2019-01-16T13:47:46.763Z,77.47
2019-01-16T13:50:43.602Z,77.95
2019-01-16T13:53:43.373Z,78.03
2019-01-16T13:59:42.487Z,77.87
2019-01-16T14:02:28.726Z,76.72
2019-01-16T14:05:19.493Z,76.60
2019-01-16T14:08:05.855Z,76.69
2019-01-16T14:10:49.511Z,76.34
2019-01-16T14:13:43.523Z,75.61
2019-01-16T14:16:29.954Z,75.99
2019-01-16T14:19:16.522Z,75.89
2019-01-16T14:22:03.196Z,76.18
2019-01-16T14:24:53.598Z,76.22
2019-01-16T14:27:44.223Z,75.73
2019-01-16T14:30:33.550Z,75.69
2019-01-16T14:33:21.424Z,75.91
2019-01-16T14:36:12.194Z,75.63
2019-01-16T14:42:39.785Z,75.60
2019-01-16T14:45:45.583Z,76.11
2019-01-16T14:48:39.309Z,75.71
2019-01-16T14:51:28.254Z,76.27
2019-01-16T14:54:28.198Z,76.77
2019-01-16T14:57:28.096Z,77.16
2019-01-16T15:00:22.063Z,77.40
2019-01-16T15:03:18.834Z,77.84
2019-01-16T15:06:12.553Z,77.79
2019-01-16T15:09:02.025Z,77.63
2019-01-16T15:11:46.058Z,77.65
2019-01-16T15:14:27.212Z,77.83
2019-01-16T15:17:13.936Z,77.73
2019-01-16T15:20:00.239Z,77.24
2019-01-16T15:22:44.106Z,77.08
2019-01-16T15:25:27.285Z,76.78
2019-01-16T15:28:04.459Z,76.99
2019-01-16T15:30:53.111Z,76.87
2019-01-16T15:33:33.579Z,77.10
2019-01-16T15:36:31.414Z,77.73
2019-01-16T15:39:08.712Z,77.29
2019-01-16T15:42:20.302Z,77.02
2019-01-16T15:45:20.176Z,77.03
2019-01-16T15:48:26.287Z,76.31
2019-01-16T15:51:25.819Z,76.25
2019-01-16T15:54:16.814Z,76.09
2019-01-16T15:57:08.475Z,76.11
2019-01-16T15:59:56.976Z,76.01
2019-01-16T16:05:36.938Z,76.33
2019-01-16T16:08:25.450Z,76.73
2019-01-16T16:11:04.369Z,76.81
2019-01-16T16:14:00.996Z,77.15
2019-01-16T16:16:43.742Z,77.15
2019-01-16T16:19:43.925Z,77.32
2019-01-16T16:22:30.711Z,77.59
2019-01-16T16:25:16.625Z,77.37
2019-01-16T16:28:03.341Z,77.37
2019-01-16T16:30:40.229Z,77.30
2019-01-16T16:33:27.057Z,77.30
2019-01-16T16:36:13.648Z,77.36
2019-01-16T16:39:00.018Z,77.70
2019-01-16T16:41:48.017Z,77.85
2019-01-16T16:44:35.927Z,77.36
2019-01-16T16:47:27.903Z,77.47
2019-01-16T16:50:09.789Z,77.34
2019-01-16T16:52:57.715Z,77.24
2019-01-16T16:55:44.074Z,77.42
2019-01-16T16:58:35.131Z,77.03
2019-01-16T17:01:21.871Z,77.23
2019-01-16T17:07:37.309Z,76.64
2019-01-16T17:10:32.456Z,76.65
2019-01-16T17:13:22.961Z,76.45
2019-01-16T17:16:10.841Z,75.89
2019-01-16T17:18:59.146Z,75.67
2019-01-16T17:21:45.444Z,75.89
2019-01-16T17:28:10.733Z,76.10
2019-01-16T17:31:00.164Z,75.78
2019-01-16T17:33:46.796Z,75.30
2019-01-16T17:36:33.499Z,75.39
2019-01-16T17:39:13.706Z,75.60
2019-01-16T17:42:10.638Z,74.84
2019-01-16T17:45:04.616Z,74.77
2019-01-16T17:47:48.062Z,74.42
2019-01-16T17:50:29.909Z,74.61
2019-01-16T17:53:17.844Z,74.78
2019-01-16T17:56:08.323Z,75.02
2019-01-16T17:58:54.823Z,74.91
2019-01-16T18:01:41.352Z,74.44
2019-01-16T18:04:27.778Z,75.00
2019-01-16T18:07:30.912Z,74.97
2019-01-16T18:10:17.607Z,74.94
2019-01-16T18:13:00.575Z,75.17
2019-01-16T18:15:54.572Z,75.12
2019-01-16T18:19:01.287Z,74.88
2019-01-16T18:21:49.386Z,75.19
2019-01-16T18:24:49.251Z,74.62
2019-01-16T18:27:40.213Z,73.96
2019-01-16T18:30:30.080Z,73.83
2019-01-16T18:33:38.700Z,73.03
2019-01-16T18:36:26.666Z,73.22
2019-01-16T18:39:12.901Z,73.15
2019-01-16T18:42:03.847Z,72.54
2019-01-16T18:44:57.794Z,72.27
2019-01-16T18:47:44.310Z,72.38
2019-01-16T18:50:30.268Z,72.25
2019-01-16T18:53:36.146Z,72.06
2019-01-16T18:56:17.889Z,71.57
2019-01-16T18:59:08.477Z,71.68
2019-01-16T19:01:59.260Z,71.57
2019-01-16T19:04:45.856Z,71.53
2019-01-16T19:07:32.491Z,71.62
2019-01-16T19:10:08.643Z,71.56
2019-01-16T19:12:55.506Z,71.76
2019-01-16T19:15:38.941Z,71.90
2019-01-16T19:18:22.354Z,72.14
2019-01-16T19:21:13.906Z,72.35
2019-01-16T19:24:14.041Z,72.40
2019-01-16T19:27:00.647Z,72.85
2019-01-16T19:29:56.865Z,73.39
2019-01-16T19:32:56.960Z,73.45
2019-01-16T19:35:34.962Z,73.47
2019-01-16T19:38:23.168Z,73.43
2019-01-16T19:41:09.647Z,73.52
2019-01-16T19:43:56.215Z,73.43
2019-01-16T19:46:42.376Z,73.79
2019-01-16T19:49:33.431Z,73.36
2019-01-16T19:52:21.579Z,73.59
2019-01-16T19:55:09.818Z,73.40
2019-01-16T19:57:49.542Z,73.09
2019-01-16T20:00:52.987Z,73.41
2019-01-16T20:03:53.163Z,72.90
2019-01-16T20:10:24.076Z,73.10
2019-01-16T20:13:15.153Z,72.74
2019-01-16T20:15:55.020Z,72.71
2019-01-16T20:18:36.590Z,72.80
2019-01-16T20:21:24.751Z,72.98
2019-01-16T20:24:13.381Z,72.75
2019-01-16T20:27:00.126Z,72.36
2019-01-16T20:29:57.307Z,72.27
2019-01-16T20:32:51.450Z,72.12
2019-01-16T20:35:31.963Z,72.25
2019-01-16T20:38:26.244Z,71.74
2019-01-16T20:41:22.695Z,72.32
2019-01-16T20:44:02.194Z,72.04
2019-01-16T20:46:45.232Z,71.95
2019-01-16T20:49:25.740Z,72.28
2019-01-16T20:52:31.691Z,71.72
2019-01-16T20:55:19.834Z,72.27
2019-01-16T20:58:14.196Z,72.55
2019-01-16T21:00:58.817Z,72.51
2019-01-16T21:03:45.435Z,72.81
2019-01-16T21:07:17.224Z,72.88
2019-01-16T21:10:03.962Z,72.50
2019-01-16T21:12:50.743Z,72.64
2019-01-16T21:15:38.813Z,72.92
2019-01-16T21:18:35.848Z,73.14
2019-01-16T21:21:22.735Z,73.14
2019-01-16T21:24:09.587Z,73.49
2019-01-16T21:27:00.366Z,73.72
2019-01-16T21:29:46.951Z,74.05
2019-01-16T21:32:43.790Z,74.04
2019-01-16T21:35:36.396Z,74.19
2019-01-16T21:38:22.782Z,74.35
2019-01-16T21:41:09.241Z,74.17
2019-01-16T21:44:06.167Z,74.28
2019-01-16T21:46:54.273Z,74.70
2019-01-16T21:49:37.902Z,74.67
2019-01-16T21:52:38.074Z,74.33
2019-01-16T21:55:29.268Z,74.60
2019-01-16T21:58:23.224Z,74.72
2019-01-16T22:01:10.002Z,74.97
2019-01-16T22:04:01.060Z,75.07
2019-01-16T22:06:46.330Z,75.27
2019-01-16T22:10:01.457Z,75.27
2019-01-16T22:12:55.547Z,75.46
2019-01-16T22:15:42.091Z,75.98
2019-01-16T22:18:45.271Z,76.29
2019-01-16T22:21:36.028Z,76.05
2019-01-16T22:27:27.151Z,76.24
2019-01-16T22:30:07.208Z,76.07
2019-01-16T22:36:31.582Z,76.97
2019-01-16T22:39:18.285Z,77.23
2019-01-16T22:42:04.939Z,76.92
2019-01-16T22:44:46.962Z,77.09
2019-01-16T22:47:34.888Z,77.31
2019-01-16T22:50:19.927Z,77.27
2019-01-16T22:53:15.334Z,77.53
2019-01-16T22:56:01.648Z,77.89
2019-01-16T22:58:49.595Z,77.70
2019-01-16T23:01:23.450Z,77.86
2019-01-16T23:04:10.148Z,78.01
2019-01-16T23:07:05.291Z,78.04
2019-01-16T23:10:02.148Z,77.56
2019-01-16T23:12:55.934Z,77.67
2019-01-16T23:15:41.915Z,77.85
2019-01-16T23:18:47.674Z,77.86
2019-01-16T23:21:33.892Z,77.58
2019-01-16T23:24:30.672Z,77.69
2019-01-16T23:27:30.521Z,78.08
2019-01-16T23:30:08.152Z,78.05
2019-01-16T23:32:45.025Z,78.17
2019-01-16T23:35:31.654Z,78.58
2019-01-16T23:38:16.558Z,78.30
2019-01-16T23:41:02.965Z,78.32
2019-01-16T23:43:56.836Z,78.61
2019-01-16T23:46:42.340Z,78.88
2019-01-16T23:49:36.168Z,78.81
2019-01-16T23:52:11.367Z,79.19
2019-01-16T23:54:59.356Z,78.97
2019-01-16T23:57:42.338Z,78.82
